sensor_id;sensor_type;location;lat;lon;timestamp;pressure;altitude;pressure_sealevel;temperature;humidity
53246;BME280;39569;51.090;-1.786;2022-09-28T00:01:41;99444.19;;;14.21;55.61
53246;BME280;39569;51.090;-1.786;2022-09-28T00:04:09;99447.53;;;14.34;55.84
53246;BME280;39569;51.090;-1.786;2022-09-28T00:06:36;99450.22;;;13.87;57.00
53246;BME280;39569;51.090;-1.786;2022-09-28T00:09:03;99448.25;;;13.82;56.72
53246;BME280;39569;51.090;-1.786;2022-09-28T00:11:30;99452.75;;;14.00;56.14
53246;BME280;39569;51.090;-1.786;2022-09-28T00:13:59;99455.94;;;14.08;56.20
53246;BME280;39569;51.090;-1.786;2022-09-28T00:16:31;99453.38;;;14.13;55.87
53246;BME280;39569;51.090;-1.786;2022-09-28T00:18:59;99449.78;;;14.49;55.08
53246;BME280;39569;51.090;-1.786;2022-09-28T00:21:30;99449.06;;;14.42;54.78
53246;BME280;39569;51.090;-1.786;2022-09-28T00:23:58;99451.41;;;14.09;55.62
53246;BME280;39569;51.090;-1.786;2022-09-28T00:26:44;99438.28;;;14.01;56.19
53246;BME280;39569;51.090;-1.786;2022-09-28T00:29:20;99452.47;;;13.90;56.79
53246;BME280;39569;51.090;-1.786;2022-09-28T00:31:50;99447.63;;;14.28;55.50
53246;BME280;39569;51.090;-1.786;2022-09-28T00:34:18;99450.44;;;14.03;55.93
53246;BME280;39569;51.090;-1.786;2022-09-28T00:36:46;99445.44;;;14.07;55.82
53246;BME280;39569;51.090;-1.786;2022-09-28T00:39:14;99443.34;;;13.79;57.03
53246;BME280;39569;51.090;-1.786;2022-09-28T00:41:42;99435.63;;;14.30;55.33
53246;BME280;39569;51.090;-1.786;2022-09-28T00:44:36;99447.34;;;14.18;55.35
53246;BME280;39569;51.090;-1.786;2022-09-28T00:47:11;99445.63;;;14.23;55.45
53246;BME280;39569;51.090;-1.786;2022-09-28T00:49:44;99436.56;;;14.06;55.33
53246;BME280;39569;51.090;-1.786;2022-09-28T00:52:17;99439.88;;;13.90;56.05
53246;BME280;39569;51.090;-1.786;2022-09-28T00:54:46;99429.41;;;14.00;55.46
53246;BME280;39569;51.090;-1.786;2022-09-28T00:57:14;99429.34;;;14.07;55.64
53246;BME280;39569;51.090;-1.786;2022-09-28T00:59:42;99436.81;;;14.16;54.89
53246;BME280;39569;51.090;-1.786;2022-09-28T01:02:09;99440.63;;;13.97;55.87
53246;BME280;39569;51.090;-1.786;2022-09-28T01:04:37;99433.94;;;14.00;55.50
53246;BME280;39569;51.090;-1.786;2022-09-28T01:07:05;99433.41;;;14.09;55.45
53246;BME280;39569;51.090;-1.786;2022-09-28T01:09:37;99430.06;;;14.14;55.09
53246;BME280;39569;51.090;-1.786;2022-09-28T01:12:05;99426.38;;;13.97;55.32
53246;BME280;39569;51.090;-1.786;2022-09-28T01:14:32;99428.56;;;13.88;55.65
53246;BME280;39569;51.090;-1.786;2022-09-28T01:17:05;99436.44;;;14.01;55.56
53246;BME280;39569;51.090;-1.786;2022-09-28T01:19:51;99435.84;;;13.99;55.51
53246;BME280;39569;51.090;-1.786;2022-09-28T01:22:33;99437.38;;;14.07;55.82
53246;BME280;39569;51.090;-1.786;2022-09-28T01:25:11;99433.81;;;13.95;55.84
53246;BME280;39569;51.090;-1.786;2022-09-28T01:27:41;99438.00;;;13.91;56.35
53246;BME280;39569;51.090;-1.786;2022-09-28T01:30:12;99431.69;;;13.85;56.65
53246;BME280;39569;51.090;-1.786;2022-09-28T01:32:46;99436.16;;;13.91;56.21
53246;BME280;39569;51.090;-1.786;2022-09-28T01:35:17;99433.22;;;13.63;57.16
53246;BME280;39569;51.090;-1.786;2022-09-28T01:37:48;99437.50;;;13.82;55.91
53246;BME280;39569;51.090;-1.786;2022-09-28T01:40:19;99439.47;;;13.57;56.55
53246;BME280;39569;51.090;-1.786;2022-09-28T01:42:50;99433.38;;;13.68;56.74
53246;BME280;39569;51.090;-1.786;2022-09-28T01:45:22;99438.13;;;13.48;57.07
53246;BME280;39569;51.090;-1.786;2022-09-28T01:47:50;99436.44;;;13.83;56.49
53246;BME280;39569;51.090;-1.786;2022-09-28T01:50:23;99429.88;;;13.67;57.00
53246;BME280;39569;51.090;-1.786;2022-09-28T01:52:54;99441.06;;;13.46;57.23
53246;BME280;39569;51.090;-1.786;2022-09-28T01:55:27;99428.81;;;13.68;56.66
53246;BME280;39569;51.090;-1.786;2022-09-28T01:58:00;99426.53;;;13.83;56.24
53246;BME280;39569;51.090;-1.786;2022-09-28T02:00:29;99426.47;;;13.72;56.69
53246;BME280;39569;51.090;-1.786;2022-09-28T02:02:59;99430.59;;;13.74;56.35
53246;BME280;39569;51.090;-1.786;2022-09-28T02:05:31;99435.09;;;13.62;56.59
53246;BME280;39569;51.090;-1.786;2022-09-28T02:08:02;99430.31;;;13.46;56.66
53246;BME280;39569;51.090;-1.786;2022-09-28T02:10:36;99431.06;;;13.17;57.81
53246;BME280;39569;51.090;-1.786;2022-09-28T02:13:11;99438.00;;;13.25;57.61
53246;BME280;39569;51.090;-1.786;2022-09-28T02:15:44;99430.69;;;12.71;59.72
53246;BME280;39569;51.090;-1.786;2022-09-28T02:18:16;99429.09;;;12.88;59.10
53246;BME280;39569;51.090;-1.786;2022-09-28T02:20:47;99432.00;;;12.87;58.58
53246;BME280;39569;51.090;-1.786;2022-09-28T02:23:19;99430.53;;;12.66;59.58
53246;BME280;39569;51.090;-1.786;2022-09-28T02:25:49;99425.56;;;13.12;57.90
53246;BME280;39569;51.090;-1.786;2022-09-28T02:28:19;99426.53;;;13.36;57.00
53246;BME280;39569;51.090;-1.786;2022-09-28T02:30:46;99431.06;;;12.50;59.73
53246;BME280;39569;51.090;-1.786;2022-09-28T02:33:16;99430.84;;;12.76;59.15
53246;BME280;39569;51.090;-1.786;2022-09-28T02:35:44;99430.69;;;13.14;58.05
53246;BME280;39569;51.090;-1.786;2022-09-28T02:38:12;99423.28;;;12.91;59.07
53246;BME280;39569;51.090;-1.786;2022-09-28T02:40:42;99424.88;;;13.17;57.76
53246;BME280;39569;51.090;-1.786;2022-09-28T02:43:13;99436.66;;;13.52;57.06
53246;BME280;39569;51.090;-1.786;2022-09-28T02:45:52;99437.00;;;13.55;57.15
53246;BME280;39569;51.090;-1.786;2022-09-28T02:48:28;99436.50;;;13.65;57.15
53246;BME280;39569;51.090;-1.786;2022-09-28T02:51:04;99440.66;;;13.61;57.00
53246;BME280;39569;51.090;-1.786;2022-09-28T02:54:06;99423.13;;;14.06;56.55
53246;BME280;39569;51.090;-1.786;2022-09-28T02:56:51;99427.69;;;14.06;56.06
53246;BME280;39569;51.090;-1.786;2022-09-28T02:59:33;99437.03;;;13.85;56.40
53246;BME280;39569;51.090;-1.786;2022-09-28T03:02:12;99441.88;;;13.47;57.85
53246;BME280;39569;51.090;-1.786;2022-09-28T03:04:48;99439.38;;;13.81;57.07
53246;BME280;39569;51.090;-1.786;2022-09-28T03:07:23;99441.28;;;13.45;57.91
53246;BME280;39569;51.090;-1.786;2022-09-28T03:09:55;99441.47;;;13.79;57.06
53246;BME280;39569;51.090;-1.786;2022-09-28T03:12:25;99443.53;;;13.96;56.30
53246;BME280;39569;51.090;-1.786;2022-09-28T03:15:09;99451.44;;;13.91;56.68
53246;BME280;39569;51.090;-1.786;2022-09-28T03:17:38;99456.72;;;13.97;56.67
53246;BME280;39569;51.090;-1.786;2022-09-28T03:20:05;99452.84;;;13.93;56.72
53246;BME280;39569;51.090;-1.786;2022-09-28T03:22:32;99449.25;;;13.69;57.03
53246;BME280;39569;51.090;-1.786;2022-09-28T03:24:59;99445.88;;;13.74;57.13
53246;BME280;39569;51.090;-1.786;2022-09-28T03:27:26;99436.78;;;13.75;56.19
53246;BME280;39569;51.090;-1.786;2022-09-28T03:29:53;99448.53;;;13.74;57.05
53246;BME280;39569;51.090;-1.786;2022-09-28T03:32:19;99440.25;;;13.75;56.39
53246;BME280;39569;51.090;-1.786;2022-09-28T03:34:47;99435.59;;;14.01;56.35
53246;BME280;39569;51.090;-1.786;2022-09-28T03:37:14;99447.09;;;13.60;57.34
53246;BME280;39569;51.090;-1.786;2022-09-28T03:39:41;99441.75;;;13.90;56.55
53246;BME280;39569;51.090;-1.786;2022-09-28T03:42:08;99434.34;;;13.73;56.94
53246;BME280;39569;51.090;-1.786;2022-09-28T03:44:35;99453.81;;;13.51;57.77
53246;BME280;39569;51.090;-1.786;2022-09-28T03:47:01;99451.16;;;13.80;56.46
53246;BME280;39569;51.090;-1.786;2022-09-28T03:49:28;99437.94;;;13.97;56.05
53246;BME280;39569;51.090;-1.786;2022-09-28T03:51:56;99440.97;;;13.71;57.34
53246;BME280;39569;51.090;-1.786;2022-09-28T03:54:23;99442.84;;;13.34;57.97
53246;BME280;39569;51.090;-1.786;2022-09-28T03:56:50;99445.38;;;13.29;58.95
53246;BME280;39569;51.090;-1.786;2022-09-28T03:59:17;99446.03;;;13.43;58.54
53246;BME280;39569;51.090;-1.786;2022-09-28T04:01:44;99445.13;;;13.67;57.35
53246;BME280;39569;51.090;-1.786;2022-09-28T04:04:11;99443.53;;;13.77;57.04
53246;BME280;39569;51.090;-1.786;2022-09-28T04:06:39;99447.03;;;13.30;58.24
53246;BME280;39569;51.090;-1.786;2022-09-28T04:09:07;99440.22;;;13.28;58.78
53246;BME280;39569;51.090;-1.786;2022-09-28T04:11:34;99439.38;;;13.81;57.14
53246;BME280;39569;51.090;-1.786;2022-09-28T04:14:01;99429.47;;;14.12;56.27
53246;BME280;39569;51.090;-1.786;2022-09-28T04:16:27;99441.16;;;13.88;56.40
53246;BME280;39569;51.090;-1.786;2022-09-28T04:18:56;99446.94;;;14.03;56.07
53246;BME280;39569;51.090;-1.786;2022-09-28T04:21:23;99455.56;;;13.75;56.50
53246;BME280;39569;51.090;-1.786;2022-09-28T04:23:50;99454.75;;;13.56;57.24
53246;BME280;39569;51.090;-1.786;2022-09-28T04:26:20;99448.72;;;13.61;56.56
53246;BME280;39569;51.090;-1.786;2022-09-28T04:28:48;99448.50;;;13.62;56.78
53246;BME280;39569;51.090;-1.786;2022-09-28T04:31:36;99458.41;;;13.26;57.43
53246;BME280;39569;51.090;-1.786;2022-09-28T04:34:04;99458.38;;;13.08;58.12
53246;BME280;39569;51.090;-1.786;2022-09-28T04:36:31;99459.22;;;13.26;57.61
53246;BME280;39569;51.090;-1.786;2022-09-28T04:38:57;99453.03;;;13.08;58.32
53246;BME280;39569;51.090;-1.786;2022-09-28T04:41:26;99461.16;;;13.19;58.41
53246;BME280;39569;51.090;-1.786;2022-09-28T04:43:53;99454.38;;;13.17;58.01
53246;BME280;39569;51.090;-1.786;2022-09-28T04:46:19;99462.44;;;12.92;58.95
53246;BME280;39569;51.090;-1.786;2022-09-28T04:48:46;99458.50;;;13.37;58.07
53246;BME280;39569;51.090;-1.786;2022-09-28T04:51:13;99459.34;;;12.88;58.92
53246;BME280;39569;51.090;-1.786;2022-09-28T04:53:40;99454.00;;;13.13;58.47
53246;BME280;39569;51.090;-1.786;2022-09-28T04:56:09;99462.75;;;13.27;57.87
53246;BME280;39569;51.090;-1.786;2022-09-28T04:58:38;99454.59;;;12.91;59.44
53246;BME280;39569;51.090;-1.786;2022-09-28T05:01:07;99455.28;;;12.86;58.80
53246;BME280;39569;51.090;-1.786;2022-09-28T05:03:34;99458.56;;;12.63;59.68
53246;BME280;39569;51.090;-1.786;2022-09-28T05:06:01;99465.41;;;13.02;58.55
53246;BME280;39569;51.090;-1.786;2022-09-28T05:08:28;99465.84;;;13.24;58.25
53246;BME280;39569;51.090;-1.786;2022-09-28T05:10:59;99471.44;;;13.40;57.75
53246;BME280;39569;51.090;-1.786;2022-09-28T05:13:27;99458.00;;;13.04;58.48
53246;BME280;39569;51.090;-1.786;2022-09-28T05:15:56;99455.63;;;12.71;60.02
53246;BME280;39569;51.090;-1.786;2022-09-28T05:18:24;99452.94;;;12.71;59.71
53246;BME280;39569;51.090;-1.786;2022-09-28T05:20:51;99459.22;;;13.26;58.37
53246;BME280;39569;51.090;-1.786;2022-09-28T05:23:17;99455.53;;;12.78;59.85
53246;BME280;39569;51.090;-1.786;2022-09-28T05:25:44;99459.16;;;12.90;59.21
53246;BME280;39569;51.090;-1.786;2022-09-28T05:28:11;99455.94;;;13.06;59.47
53246;BME280;39569;51.090;-1.786;2022-09-28T05:30:38;99454.00;;;12.88;59.68
53246;BME280;39569;51.090;-1.786;2022-09-28T05:33:06;99452.97;;;13.32;59.04
53246;BME280;39569;51.090;-1.786;2022-09-28T05:35:33;99452.09;;;13.38;58.24
53246;BME280;39569;51.090;-1.786;2022-09-28T05:38:03;99457.81;;;13.60;58.17
53246;BME280;39569;51.090;-1.786;2022-09-28T05:40:31;99455.56;;;13.75;58.04
53246;BME280;39569;51.090;-1.786;2022-09-28T05:42:58;99452.53;;;14.01;56.51
53246;BME280;39569;51.090;-1.786;2022-09-28T05:45:26;99453.28;;;13.60;57.98
53246;BME280;39569;51.090;-1.786;2022-09-28T05:47:54;99453.28;;;13.60;58.46
53246;BME280;39569;51.090;-1.786;2022-09-28T05:50:22;99459.59;;;13.66;58.43
53246;BME280;39569;51.090;-1.786;2022-09-28T05:52:59;99454.75;;;13.74;58.42
53246;BME280;39569;51.090;-1.786;2022-09-28T05:55:26;99456.09;;;13.65;58.51
53246;BME280;39569;51.090;-1.786;2022-09-28T05:57:57;99455.34;;;13.22;59.67
53246;BME280;39569;51.090;-1.786;2022-09-28T06:00:25;99459.81;;;13.10;60.15
53246;BME280;39569;51.090;-1.786;2022-09-28T06:02:55;99455.56;;;13.21;60.54
53246;BME280;39569;51.090;-1.786;2022-09-28T06:05:23;99455.50;;;13.63;59.30
53246;BME280;39569;51.090;-1.786;2022-09-28T06:07:51;99448.19;;;14.00;57.95
53246;BME280;39569;51.090;-1.786;2022-09-28T06:10:18;99451.19;;;14.40;56.49
53246;BME280;39569;51.090;-1.786;2022-09-28T06:12:44;99452.78;;;14.41;56.98
53246;BME280;39569;51.090;-1.786;2022-09-28T06:15:13;99455.53;;;14.23;56.94
53246;BME280;39569;51.090;-1.786;2022-09-28T06:17:41;99452.91;;;14.34;56.52
53246;BME280;39569;51.090;-1.786;2022-09-28T06:20:09;99454.19;;;14.32;56.89
53246;BME280;39569;51.090;-1.786;2022-09-28T06:22:37;99457.97;;;14.24;57.24
53246;BME280;39569;51.090;-1.786;2022-09-28T06:25:05;99454.66;;;14.40;56.94
53246;BME280;39569;51.090;-1.786;2022-09-28T06:27:32;99466.56;;;14.03;57.64
53246;BME280;39569;51.090;-1.786;2022-09-28T06:30:00;99465.69;;;14.62;56.19
53246;BME280;39569;51.090;-1.786;2022-09-28T06:32:27;99462.53;;;14.65;55.84
53246;BME280;39569;51.090;-1.786;2022-09-28T06:34:54;99462.88;;;14.57;56.15
53246;BME280;39569;51.090;-1.786;2022-09-28T06:37:21;99472.50;;;14.35;56.19
53246;BME280;39569;51.090;-1.786;2022-09-28T06:39:52;99468.97;;;14.64;55.94
53246;BME280;39569;51.090;-1.786;2022-09-28T06:42:19;99471.72;;;14.34;56.33
53246;BME280;39569;51.090;-1.786;2022-09-28T06:44:46;99471.72;;;14.34;56.58
53246;BME280;39569;51.090;-1.786;2022-09-28T06:47:12;99481.59;;;14.04;56.99
53246;BME280;39569;51.090;-1.786;2022-09-28T06:49:40;99474.25;;;14.29;57.33
53246;BME280;39569;51.090;-1.786;2022-09-28T06:52:07;99483.50;;;14.86;55.79
53246;BME280;39569;51.090;-1.786;2022-09-28T06:54:36;99480.75;;;14.63;56.48
53246;BME280;39569;51.090;-1.786;2022-09-28T06:57:04;99483.22;;;14.23;57.64
53246;BME280;39569;51.090;-1.786;2022-09-28T06:59:31;99476.50;;;15.08;55.82
53246;BME280;39569;51.090;-1.786;2022-09-28T07:01:57;99482.13;;;15.41;54.66
53246;BME280;39569;51.090;-1.786;2022-09-28T07:04:24;99488.41;;;15.98;53.59
53246;BME280;39569;51.090;-1.786;2022-09-28T07:06:51;99478.22;;;16.00;53.68
53246;BME280;39569;51.090;-1.786;2022-09-28T07:09:18;99477.00;;;15.80;53.98
53246;BME280;39569;51.090;-1.786;2022-09-28T07:11:45;99479.22;;;15.83;53.83
53246;BME280;39569;51.090;-1.786;2022-09-28T07:14:13;99480.41;;;16.03;53.64
53246;BME280;39569;51.090;-1.786;2022-09-28T07:16:40;99473.25;;;16.09;53.32
53246;BME280;39569;51.090;-1.786;2022-09-28T07:19:07;99478.09;;;16.07;52.71
53246;BME280;39569;51.090;-1.786;2022-09-28T07:21:34;99479.72;;;16.08;53.21
53246;BME280;39569;51.090;-1.786;2022-09-28T07:24:01;99477.56;;;16.21;52.87
53246;BME280;39569;51.090;-1.786;2022-09-28T07:26:28;99479.75;;;16.24;53.00
53246;BME280;39569;51.090;-1.786;2022-09-28T07:28:57;99489.63;;;16.19;52.47
53246;BME280;39569;51.090;-1.786;2022-09-28T07:31:26;99479.13;;;16.06;53.04
53246;BME280;39569;51.090;-1.786;2022-09-28T07:33:54;99493.69;;;16.05;53.43
53246;BME280;39569;51.090;-1.786;2022-09-28T07:36:20;99494.00;;;15.57;54.28
53246;BME280;39569;51.090;-1.786;2022-09-28T07:38:47;99484.47;;;15.89;53.86
53246;BME280;39569;51.090;-1.786;2022-09-28T07:41:14;99481.88;;;16.22;53.28
53246;BME280;39569;51.090;-1.786;2022-09-28T07:43:46;99480.59;;;16.69;52.63
53246;BME280;39569;51.090;-1.786;2022-09-28T07:46:14;99479.22;;;17.00;51.93
53246;BME280;39569;51.090;-1.786;2022-09-28T07:48:43;99481.91;;;17.38;51.07
53246;BME280;39569;51.090;-1.786;2022-09-28T07:51:11;99484.00;;;17.91;49.19
53246;BME280;39569;51.090;-1.786;2022-09-28T07:53:37;99486.78;;;17.53;49.88
53246;BME280;39569;51.090;-1.786;2022-09-28T07:56:05;99487.06;;;18.21;48.50
53246;BME280;39569;51.090;-1.786;2022-09-28T07:58:35;99489.97;;;17.93;48.84
53246;BME280;39569;51.090;-1.786;2022-09-28T08:01:04;99494.53;;;18.14;48.93
53246;BME280;39569;51.090;-1.786;2022-09-28T08:03:32;99497.78;;;17.90;49.39
53246;BME280;39569;51.090;-1.786;2022-09-28T08:06:02;99496.75;;;18.17;48.81
53246;BME280;39569;51.090;-1.786;2022-09-28T08:08:29;99493.50;;;17.94;50.25
53246;BME280;39569;51.090;-1.786;2022-09-28T08:10:56;99487.28;;;18.41;48.54
53246;BME280;39569;51.090;-1.786;2022-09-28T08:13:23;99490.56;;;19.07;47.67
53246;BME280;39569;51.090;-1.786;2022-09-28T08:15:51;99487.47;;;19.30;47.58
53246;BME280;39569;51.090;-1.786;2022-09-28T08:18:19;99484.34;;;19.43;45.84
53246;BME280;39569;51.090;-1.786;2022-09-28T08:20:46;99488.34;;;18.99;46.77
53246;BME280;39569;51.090;-1.786;2022-09-28T08:23:31;99497.47;;;18.61;48.13
53246;BME280;39569;51.090;-1.786;2022-09-28T08:25:58;99493.47;;;18.95;47.48
53246;BME280;39569;51.090;-1.786;2022-09-28T08:28:25;99493.22;;;18.70;47.81
53246;BME280;39569;51.090;-1.786;2022-09-28T08:30:52;99492.66;;;19.00;46.84
53246;BME280;39569;51.090;-1.786;2022-09-28T08:33:20;99490.28;;;19.40;46.19
53246;BME280;39569;51.090;-1.786;2022-09-28T08:35:54;99490.16;;;20.38;43.96
53246;BME280;39569;51.090;-1.786;2022-09-28T08:38:21;99493.19;;;21.42;42.63
53246;BME280;39569;51.090;-1.786;2022-09-28T08:40:58;99491.56;;;21.31;41.46
53246;BME280;39569;51.090;-1.786;2022-09-28T08:46:39;99479.69;;;25.69;33.59
53246;BME280;39569;51.090;-1.786;2022-09-28T08:49:10;99480.66;;;26.63;31.93
53246;BME280;39569;51.090;-1.786;2022-09-28T08:51:42;99485.75;;;26.20;31.96
53246;BME280;39569;51.090;-1.786;2022-09-28T08:54:21;99479.16;;;25.08;34.21
53246;BME280;39569;51.090;-1.786;2022-09-28T08:56:54;99489.47;;;23.76;37.17
53246;BME280;39569;51.090;-1.786;2022-09-28T08:59:25;99492.56;;;21.71;40.00
53246;BME280;39569;51.090;-1.786;2022-09-28T09:01:58;99494.19;;;21.77;40.56
53246;BME280;39569;51.090;-1.786;2022-09-28T09:04:28;99485.31;;;23.60;37.64
53246;BME280;39569;51.090;-1.786;2022-09-28T09:07:13;99482.22;;;23.66;36.23
53246;BME280;39569;51.090;-1.786;2022-09-28T09:09:53;99485.75;;;23.43;38.00
53246;BME280;39569;51.090;-1.786;2022-09-28T09:12:28;99482.34;;;24.22;35.86
53246;BME280;39569;51.090;-1.786;2022-09-28T09:15:16;99480.53;;;24.36;35.36
53246;BME280;39569;51.090;-1.786;2022-09-28T09:17:51;99481.72;;;25.31;34.13
53246;BME280;39569;51.090;-1.786;2022-09-28T09:20:30;99477.28;;;26.80;31.15
53246;BME280;39569;51.090;-1.786;2022-09-28T09:23:06;99482.81;;;25.76;32.76
53246;BME280;39569;51.090;-1.786;2022-09-28T09:25:40;99481.00;;;25.99;31.90
53246;BME280;39569;51.090;-1.786;2022-09-28T09:28:35;99479.31;;;23.81;35.24
53246;BME280;39569;51.090;-1.786;2022-09-28T09:31:10;99482.50;;;23.41;36.89
53246;BME280;39569;51.090;-1.786;2022-09-28T09:34:08;99483.88;;;23.38;36.04
53246;BME280;39569;51.090;-1.786;2022-09-28T09:36:48;99485.72;;;22.42;37.78
53246;BME280;39569;51.090;-1.786;2022-09-28T09:39:29;99490.38;;;21.88;38.80
53246;BME280;39569;51.090;-1.786;2022-09-28T09:42:13;99478.97;;;21.71;39.56
53246;BME280;39569;51.090;-1.786;2022-09-28T09:44:58;99481.34;;;21.92;38.99
53246;BME280;39569;51.090;-1.786;2022-09-28T09:47:30;99486.59;;;22.76;37.57
53246;BME280;39569;51.090;-1.786;2022-09-28T09:50:02;99486.13;;;22.69;36.92
53246;BME280;39569;51.090;-1.786;2022-09-28T09:52:34;99482.69;;;23.73;35.45
53246;BME280;39569;51.090;-1.786;2022-09-28T09:55:15;99472.19;;;23.85;36.16
53246;BME280;39569;51.090;-1.786;2022-09-28T09:57:44;99471.78;;;23.50;35.70
53246;BME280;39569;51.090;-1.786;2022-09-28T10:00:16;99481.06;;;23.49;36.69
53246;BME280;39569;51.090;-1.786;2022-09-28T10:02:45;99478.16;;;24.48;34.08
53246;BME280;39569;51.090;-1.786;2022-09-28T10:05:21;99473.00;;;24.28;34.16
53246;BME280;39569;51.090;-1.786;2022-09-28T10:07:53;99472.47;;;25.46;32.68
53246;BME280;39569;51.090;-1.786;2022-09-28T10:10:26;99465.25;;;27.73;29.55
53246;BME280;39569;51.090;-1.786;2022-09-28T10:12:55;99466.22;;;28.84;27.51
53246;BME280;39569;51.090;-1.786;2022-09-28T10:15:25;99464.44;;;27.19;30.32
53246;BME280;39569;51.090;-1.786;2022-09-28T10:17:55;99462.91;;;27.58;28.13
53246;BME280;39569;51.090;-1.786;2022-09-28T10:20:23;99459.16;;;29.47;26.40
53246;BME280;39569;51.090;-1.786;2022-09-28T10:22:50;99457.50;;;27.83;27.34
53246;BME280;39569;51.090;-1.786;2022-09-28T10:25:18;99456.53;;;28.70;27.08
53246;BME280;39569;51.090;-1.786;2022-09-28T10:27:47;99452.47;;;29.56;25.75
53246;BME280;39569;51.090;-1.786;2022-09-28T10:30:18;99442.56;;;29.26;25.80
53246;BME280;39569;51.090;-1.786;2022-09-28T10:32:50;99445.16;;;29.23;25.86
53246;BME280;39569;51.090;-1.786;2022-09-28T10:35:23;99449.53;;;28.12;26.78
53246;BME280;39569;51.090;-1.786;2022-09-28T10:37:55;99453.22;;;25.78;30.43
53246;BME280;39569;51.090;-1.786;2022-09-28T10:40:31;99459.50;;;23.94;33.43
53246;BME280;39569;51.090;-1.786;2022-09-28T10:43:01;99461.78;;;24.29;32.84
53246;BME280;39569;51.090;-1.786;2022-09-28T10:45:32;99459.41;;;26.11;29.75
53246;BME280;39569;51.090;-1.786;2022-09-28T10:48:04;99452.63;;;24.58;31.41
53246;BME280;39569;51.090;-1.786;2022-09-28T10:50:32;99443.41;;;25.04;31.44
53246;BME280;39569;51.090;-1.786;2022-09-28T10:53:16;99442.75;;;24.24;32.41
53246;BME280;39569;51.090;-1.786;2022-09-28T10:55:56;99450.09;;;25.58;30.48
53246;BME280;39569;51.090;-1.786;2022-09-28T10:58:26;99446.75;;;24.51;31.35
53246;BME280;39569;51.090;-1.786;2022-09-28T11:00:58;99449.75;;;25.32;30.81
53246;BME280;39569;51.090;-1.786;2022-09-28T11:03:29;99448.06;;;24.72;32.23
53246;BME280;39569;51.090;-1.786;2022-09-28T11:05:58;99447.72;;;25.38;31.50
53246;BME280;39569;51.090;-1.786;2022-09-28T11:08:28;99441.47;;;27.68;27.67
53246;BME280;39569;51.090;-1.786;2022-09-28T11:11:04;99444.66;;;26.56;28.25
53246;BME280;39569;51.090;-1.786;2022-09-28T11:13:38;99443.94;;;25.20;30.72
53246;BME280;39569;51.090;-1.786;2022-09-28T11:16:05;99448.50;;;24.79;31.30
53246;BME280;39569;51.090;-1.786;2022-09-28T11:18:34;99438.13;;;28.53;27.42
53246;BME280;39569;51.090;-1.786;2022-09-28T11:21:07;99440.06;;;28.61;26.39
53246;BME280;39569;51.090;-1.786;2022-09-28T11:23:34;99433.28;;;29.77;24.82
53246;BME280;39569;51.090;-1.786;2022-09-28T11:26:04;99432.81;;;27.75;26.91
53246;BME280;39569;51.090;-1.786;2022-09-28T11:28:33;99436.47;;;24.80;30.89
53246;BME280;39569;51.090;-1.786;2022-09-28T11:31:02;99437.75;;;23.47;32.81
53246;BME280;39569;51.090;-1.786;2022-09-28T11:33:33;99444.34;;;22.84;32.79
53246;BME280;39569;51.090;-1.786;2022-09-28T11:36:13;99441.69;;;23.36;33.44
53246;BME280;39569;51.090;-1.786;2022-09-28T11:38:51;99451.94;;;22.87;33.50
53246;BME280;39569;51.090;-1.786;2022-09-28T11:41:37;99454.47;;;22.34;34.37
53246;BME280;39569;51.090;-1.786;2022-09-28T11:47:07;99454.34;;;22.16;35.47
53246;BME280;39569;51.090;-1.786;2022-09-28T11:49:40;99442.28;;;22.71;34.45
53246;BME280;39569;51.090;-1.786;2022-09-28T11:52:15;99436.31;;;22.25;35.07
53246;BME280;39569;51.090;-1.786;2022-09-28T11:54:48;99440.50;;;22.07;35.58
53246;BME280;39569;51.090;-1.786;2022-09-28T11:57:20;99433.34;;;21.68;35.82
53246;BME280;39569;51.090;-1.786;2022-09-28T11:59:54;99437.47;;;21.45;36.21
53246;BME280;39569;51.090;-1.786;2022-09-28T12:02:26;99429.41;;;21.99;35.89
53246;BME280;39569;51.090;-1.786;2022-09-28T12:04:59;99427.34;;;22.63;35.30
53246;BME280;39569;51.090;-1.786;2022-09-28T12:07:31;99431.22;;;22.57;35.88
53246;BME280;39569;51.090;-1.786;2022-09-28T12:10:07;99421.66;;;22.93;35.68
53246;BME280;39569;51.090;-1.786;2022-09-28T12:12:42;99424.09;;;23.71;33.56
53246;BME280;39569;51.090;-1.786;2022-09-28T12:15:15;99414.44;;;26.25;29.62
53246;BME280;39569;51.090;-1.786;2022-09-28T12:17:45;99399.56;;;27.37;27.32
53246;BME280;39569;51.090;-1.786;2022-09-28T12:20:20;99402.94;;;27.90;26.37
53246;BME280;39569;51.090;-1.786;2022-09-28T12:22:55;99393.16;;;28.06;25.75
53246;BME280;39569;51.090;-1.786;2022-09-28T12:25:30;99387.34;;;28.51;26.13
53246;BME280;39569;51.090;-1.786;2022-09-28T12:28:02;99403.03;;;26.10;28.21
53246;BME280;39569;51.090;-1.786;2022-09-28T12:30:34;99398.97;;;26.43;27.44
53246;BME280;39569;51.090;-1.786;2022-09-28T12:33:06;99399.50;;;23.94;30.59
53246;BME280;39569;51.090;-1.786;2022-09-28T12:35:47;99406.84;;;22.99;31.78
53246;BME280;39569;51.090;-1.786;2022-09-28T12:38:29;99411.94;;;21.51;34.15
53246;BME280;39569;51.090;-1.786;2022-09-28T12:41:04;99410.00;;;21.57;33.62
53246;BME280;39569;51.090;-1.786;2022-09-28T12:43:49;99416.75;;;21.64;34.12
53246;BME280;39569;51.090;-1.786;2022-09-28T12:46:28;99418.41;;;21.55;33.58
53246;BME280;39569;51.090;-1.786;2022-09-28T12:49:18;99402.81;;;22.29;32.90
53246;BME280;39569;51.090;-1.786;2022-09-28T12:51:52;99398.44;;;22.33;32.83
53246;BME280;39569;51.090;-1.786;2022-09-28T12:54:44;99400.28;;;22.77;32.76
53246;BME280;39569;51.090;-1.786;2022-09-28T12:57:34;99404.03;;;22.86;32.26
53246;BME280;39569;51.090;-1.786;2022-09-28T13:00:05;99399.66;;;22.56;32.19
53246;BME280;39569;51.090;-1.786;2022-09-28T13:02:49;99402.53;;;22.31;32.93
53246;BME280;39569;51.090;-1.786;2022-09-28T13:05:35;99394.19;;;23.13;32.95
53246;BME280;39569;51.090;-1.786;2022-09-28T13:08:11;99392.78;;;21.76;34.69
53246;BME280;39569;51.090;-1.786;2022-09-28T13:10:40;99397.91;;;21.19;34.84
53246;BME280;39569;51.090;-1.786;2022-09-28T13:13:22;99388.44;;;22.24;33.20
53246;BME280;39569;51.090;-1.786;2022-09-28T13:15:55;99379.56;;;22.47;32.27
53246;BME280;39569;51.090;-1.786;2022-09-28T13:18:30;99379.44;;;22.28;33.76